createdAt,value
2022-11-20T00:00:24.225Z,9.57
2022-11-20T00:02:53.146Z,9.50
2022-11-20T00:05:22.114Z,9.30
2022-11-20T00:07:51.073Z,10.80
2022-11-20T00:10:21.170Z,9.43
2022-11-20T00:12:50.227Z,8.97
2022-11-20T00:15:19.088Z,8.97
2022-11-20T00:17:47.778Z,9.67
2022-11-20T00:20:17.261Z,8.43
2022-11-20T00:22:46.075Z,8.40
2022-11-20T00:25:14.846Z,8.10
2022-11-20T00:27:45.382Z,8.60
2022-11-20T00:30:15.165Z,7.57
2022-11-20T00:32:43.997Z,7.53
2022-11-20T00:35:13.035Z,8.10
2022-11-20T00:37:41.624Z,8.40
2022-11-20T00:40:14.021Z,8.53
2022-11-20T00:42:44.185Z,8.43
2022-11-20T00:45:13.052Z,9.00
2022-11-20T00:47:41.510Z,9.60
2022-11-20T00:50:10.812Z,8.93
2022-11-20T00:52:39.189Z,8.07
2022-11-20T00:55:08.633Z,7.90
2022-11-20T00:57:37.680Z,7.53
2022-11-20T01:00:10.132Z,7.73
2022-11-20T01:02:40.998Z,7.40
2022-11-20T01:05:09.832Z,6.90
2022-11-20T01:07:38.267Z,6.77
2022-11-20T01:10:10.030Z,7.50
2022-11-20T01:12:40.545Z,7.33
2022-11-20T01:15:11.561Z,7.43
2022-11-20T01:17:40.167Z,8.00
2022-11-20T01:20:10.537Z,8.40
2022-11-20T01:22:39.196Z,7.57
2022-11-20T01:25:14.383Z,7.63
2022-11-20T01:27:42.933Z,7.60
2022-11-20T01:30:15.060Z,7.30
2022-11-20T01:32:43.717Z,7.80
2022-11-20T01:35:12.229Z,7.13
2022-11-20T01:37:43.151Z,7.10
2022-11-20T01:40:15.050Z,7.33
2022-11-20T01:43:07.097Z,6.70
2022-11-20T01:46:00.428Z,7.07
2022-11-20T01:48:34.340Z,7.07
2022-11-20T01:51:04.368Z,6.70
2022-11-20T01:53:38.481Z,6.83
2022-11-20T01:56:12.036Z,5.87
2022-11-20T01:58:44.515Z,6.00
2022-11-20T02:01:15.775Z,5.70
2022-11-20T02:03:45.366Z,6.40
2022-11-20T02:06:19.759Z,5.70
2022-11-20T02:08:48.188Z,6.40
2022-11-20T02:11:16.513Z,6.00
2022-11-20T02:13:46.547Z,5.77
2022-11-20T02:16:21.562Z,5.53
2022-11-20T02:18:50.574Z,6.10
2022-11-20T02:21:32.192Z,6.13
2022-11-20T02:24:09.533Z,5.70
2022-11-20T02:26:48.578Z,5.70
2022-11-20T02:29:21.951Z,4.93
2022-11-20T02:31:50.713Z,5.73
2022-11-20T02:34:19.206Z,5.37
2022-11-20T02:36:49.748Z,5.43
2022-11-20T02:39:21.981Z,5.80
2022-11-20T02:41:50.826Z,5.43
2022-11-20T02:44:19.518Z,4.83
2022-11-20T02:46:48.048Z,5.27
2022-11-20T02:49:17.546Z,5.10
2022-11-20T02:51:45.930Z,5.43
2022-11-20T02:54:14.482Z,5.30
2022-11-20T02:56:44.499Z,5.03
2022-11-20T02:59:13.100Z,4.73
2022-11-20T03:01:41.716Z,5.13
2022-11-20T03:04:10.333Z,4.90
2022-11-20T03:06:39.541Z,4.97
2022-11-20T03:09:11.693Z,5.40
2022-11-20T03:11:40.361Z,4.80
2022-11-20T03:14:10.389Z,4.73
2022-11-20T03:16:41.320Z,5.23
2022-11-20T03:19:10.042Z,5.23
2022-11-20T03:21:38.793Z,4.80
2022-11-20T03:24:10.963Z,5.10
2022-11-20T03:26:40.701Z,5.10
2022-11-20T03:29:10.836Z,4.50
2022-11-20T03:31:41.952Z,5.00
2022-11-20T03:34:12.534Z,4.30
2022-11-20T03:36:41.853Z,5.27
2022-11-20T03:39:10.919Z,4.83
2022-11-20T03:41:41.746Z,4.97
2022-11-20T03:44:14.672Z,5.03
2022-11-20T03:46:43.395Z,5.07
2022-11-20T03:49:11.971Z,5.20
2022-11-20T03:51:41.004Z,4.73
2022-11-20T03:54:11.173Z,4.83
2022-11-20T03:56:44.051Z,4.83
2022-11-20T03:59:14.223Z,4.83
2022-11-20T04:01:45.477Z,5.23
2022-11-20T04:04:17.769Z,4.60
2022-11-20T04:06:46.208Z,5.00
2022-11-20T04:09:16.850Z,4.70
2022-11-20T04:11:45.429Z,5.00
2022-11-20T04:14:17.412Z,5.80
2022-11-20T04:16:46.061Z,6.03
2022-11-20T04:19:16.023Z,5.77
2022-11-20T04:21:45.520Z,5.80
2022-11-20T04:24:14.067Z,5.53
2022-11-20T04:26:42.992Z,5.40
2022-11-20T04:29:13.439Z,6.53
2022-11-20T04:31:43.585Z,5.83
2022-11-20T04:34:13.981Z,6.07
2022-11-20T04:36:43.498Z,6.47
2022-11-20T04:39:15.693Z,6.83
2022-11-20T04:41:44.367Z,7.30
2022-11-20T04:44:13.113Z,7.37
2022-11-20T04:46:44.315Z,7.30
2022-11-20T04:49:13.774Z,7.03
2022-11-20T04:51:42.220Z,7.67
2022-11-20T04:54:12.643Z,7.30
2022-11-20T04:56:41.370Z,7.43
2022-11-20T04:59:10.029Z,7.80
2022-11-20T05:01:38.882Z,7.37
2022-11-20T05:04:08.933Z,7.10
2022-11-20T05:06:37.890Z,8.13
2022-11-20T05:09:09.099Z,7.20
2022-11-20T05:11:37.753Z,6.83
2022-11-20T05:14:06.548Z,8.43
2022-11-20T05:16:37.374Z,7.70
2022-11-20T05:19:05.918Z,8.00
2022-11-20T05:21:35.872Z,8.17
2022-11-20T05:24:05.608Z,7.33
2022-11-20T05:26:34.119Z,7.90
2022-11-20T05:29:02.554Z,8.47
2022-11-20T05:31:31.080Z,8.33
2022-11-20T05:33:59.860Z,8.10
2022-11-20T05:36:28.385Z,8.53
2022-11-20T05:39:01.487Z,8.03
2022-11-20T05:41:30.261Z,8.33
2022-11-20T05:44:01.502Z,7.10
2022-11-20T05:46:30.006Z,8.27
2022-11-20T05:48:59.588Z,6.90
2022-11-20T05:51:28.752Z,6.87
2022-11-20T05:54:00.132Z,8.33
2022-11-20T05:56:28.624Z,13.60
2022-11-20T05:58:58.864Z,11.33
2022-11-20T06:01:28.290Z,7.57
2022-11-20T06:03:57.158Z,5.53
2022-11-20T06:06:26.285Z,4.70
2022-11-20T06:08:55.055Z,4.40
2022-11-20T06:11:25.268Z,9.30
2022-11-20T06:13:54.138Z,6.60
2022-11-20T06:16:22.941Z,5.17
2022-11-20T06:18:51.523Z,4.17
2022-11-20T06:21:21.550Z,3.70
2022-11-20T06:23:50.828Z,3.37
2022-11-20T06:26:21.132Z,2.90
2022-11-20T06:28:51.935Z,3.00
2022-11-20T06:31:22.681Z,2.50
2022-11-20T06:33:51.890Z,2.60
2022-11-20T06:36:23.278Z,2.67
2022-11-20T06:38:52.231Z,2.77
2022-11-20T06:41:22.538Z,3.20
2022-11-20T06:43:52.965Z,3.20
2022-11-20T22:32:23.353Z,5.30
2022-11-20T22:34:52.328Z,4.97
2022-11-20T22:37:20.999Z,4.83
2022-11-20T22:39:50.105Z,11.17
2022-11-20T22:42:18.911Z,16.50
2022-11-20T22:44:49.231Z,11.83
2022-11-20T22:47:17.978Z,10.47
2022-11-20T22:49:48.070Z,10.57
2022-11-20T22:52:16.739Z,6.87
2022-11-20T22:54:45.394Z,7.40
2022-11-20T22:57:13.981Z,8.47
2022-11-20T22:59:42.766Z,9.17
2022-11-20T23:02:11.426Z,9.30
2022-11-20T23:04:39.977Z,8.53
2022-11-20T23:07:10.012Z,9.67
2022-11-20T23:09:38.827Z,9.03
2022-11-20T23:12:08.083Z,11.53
2022-11-20T23:14:36.738Z,12.60
2022-11-20T23:17:05.321Z,12.87
2022-11-20T23:19:33.804Z,14.40
2022-11-20T23:22:02.335Z,12.47
2022-11-20T23:24:32.343Z,11.17
2022-11-20T23:27:00.952Z,8.47
2022-11-20T23:29:29.598Z,7.23
2022-11-20T23:31:58.376Z,6.43
2022-11-20T23:34:27.066Z,5.80
2022-11-20T23:36:55.777Z,5.10
2022-11-20T23:39:24.378Z,5.90
2022-11-20T23:41:54.336Z,5.90
2022-11-20T23:44:23.589Z,6.00
2022-11-20T23:46:52.221Z,5.90
2022-11-20T23:49:20.862Z,6.70
2022-11-20T23:51:49.551Z,5.73
2022-11-20T23:54:18.146Z,5.80
2022-11-20T23:56:46.841Z,5.80
2022-11-20T23:59:16.952Z,5.50
